sensor_id;sensor_type;location;lat;lon;timestamp;P1;durP1;ratioP1;P2;durP2;ratioP2
15488;SDS011;7846;48.830;9.116;2023-01-24T00:01:21;15.47;;;12.70;;
15488;SDS011;7846;48.830;9.116;2023-01-24T00:03:47;14.50;;;12.70;;
15488;SDS011;7846;48.830;9.116;2023-01-24T00:06:12;13.30;;;11.83;;
15488;SDS011;7846;48.830;9.116;2023-01-24T00:08:38;13.13;;;11.73;;
15488;SDS011;7846;48.830;9.116;2023-01-24T00:11:04;14.70;;;12.07;;
15488;SDS011;7846;48.830;9.116;2023-01-24T00:13:32;13.60;;;11.80;;
15488;SDS011;7846;48.830;9.116;2023-01-24T00:16:17;14.77;;;13.17;;
15488;SDS011;7846;48.830;9.116;2023-01-24T00:18:46;13.80;;;11.33;;
15488;SDS011;7846;48.830;9.116;2023-01-24T00:21:13;14.30;;;12.27;;
15488;SDS011;7846;48.830;9.116;2023-01-24T00:23:41;15.93;;;12.07;;
15488;SDS011;7846;48.830;9.116;2023-01-24T00:26:08;14.43;;;11.97;;
15488;SDS011;7846;48.830;9.116;2023-01-24T00:28:34;13.80;;;11.63;;
15488;SDS011;7846;48.830;9.116;2023-01-24T00:31:00;14.10;;;11.67;;
15488;SDS011;7846;48.830;9.116;2023-01-24T00:33:27;13.17;;;11.20;;
15488;SDS011;7846;48.830;9.116;2023-01-24T00:35:53;14.07;;;12.00;;
15488;SDS011;7846;48.830;9.116;2023-01-24T00:38:21;14.07;;;12.20;;
15488;SDS011;7846;48.830;9.116;2023-01-24T00:40:47;14.47;;;11.77;;
15488;SDS011;7846;48.830;9.116;2023-01-24T00:43:13;14.73;;;12.43;;
15488;SDS011;7846;48.830;9.116;2023-01-24T00:45:38;15.70;;;12.23;;
15488;SDS011;7846;48.830;9.116;2023-01-24T00:48:04;14.40;;;12.30;;
15488;SDS011;7846;48.830;9.116;2023-01-24T00:50:31;13.60;;;11.77;;
15488;SDS011;7846;48.830;9.116;2023-01-24T00:52:57;14.27;;;12.43;;
15488;SDS011;7846;48.830;9.116;2023-01-24T00:55:23;13.63;;;11.70;;
15488;SDS011;7846;48.830;9.116;2023-01-24T00:57:49;14.23;;;12.10;;
15488;SDS011;7846;48.830;9.116;2023-01-24T01:00:15;13.77;;;12.00;;
15488;SDS011;7846;48.830;9.116;2023-01-24T01:02:41;15.00;;;12.30;;
15488;SDS011;7846;48.830;9.116;2023-01-24T01:05:06;13.67;;;11.70;;
15488;SDS011;7846;48.830;9.116;2023-01-24T01:07:32;13.50;;;11.67;;
15488;SDS011;7846;48.830;9.116;2023-01-24T01:09:57;14.37;;;12.33;;
15488;SDS011;7846;48.830;9.116;2023-01-24T01:12:23;14.77;;;12.07;;
15488;SDS011;7846;48.830;9.116;2023-01-24T01:14:48;14.23;;;12.40;;
15488;SDS011;7846;48.830;9.116;2023-01-24T01:17:15;16.57;;;12.87;;
15488;SDS011;7846;48.830;9.116;2023-01-24T01:19:41;14.80;;;12.93;;
15488;SDS011;7846;48.830;9.116;2023-01-24T01:22:07;15.90;;;13.13;;
15488;SDS011;7846;48.830;9.116;2023-01-24T01:24:33;17.33;;;13.87;;
15488;SDS011;7846;48.830;9.116;2023-01-24T01:26:58;15.30;;;13.17;;
15488;SDS011;7846;48.830;9.116;2023-01-24T01:29:24;13.87;;;11.77;;
15488;SDS011;7846;48.830;9.116;2023-01-24T01:31:50;18.00;;;14.23;;
15488;SDS011;7846;48.830;9.116;2023-01-24T01:34:16;15.70;;;13.27;;
15488;SDS011;7846;48.830;9.116;2023-01-24T01:36:42;16.33;;;13.20;;
15488;SDS011;7846;48.830;9.116;2023-01-24T01:39:07;15.70;;;13.80;;
15488;SDS011;7846;48.830;9.116;2023-01-24T01:41:32;16.60;;;13.50;;
15488;SDS011;7846;48.830;9.116;2023-01-24T01:44:16;17.30;;;14.07;;
15488;SDS011;7846;48.830;9.116;2023-01-24T01:47:36;17.40;;;13.80;;
15488;SDS011;7846;48.830;9.116;2023-01-24T01:50:16;17.57;;;14.07;;
15488;SDS011;7846;48.830;9.116;2023-01-24T01:52:52;16.93;;;13.47;;
15488;SDS011;7846;48.830;9.116;2023-01-24T01:55:18;17.37;;;14.07;;
15488;SDS011;7846;48.830;9.116;2023-01-24T01:57:47;18.87;;;14.57;;
15488;SDS011;7846;48.830;9.116;2023-01-24T02:00:16;17.10;;;13.97;;
15488;SDS011;7846;48.830;9.116;2023-01-24T02:02:52;19.03;;;14.13;;
15488;SDS011;7846;48.830;9.116;2023-01-24T02:05:40;16.63;;;13.77;;
15488;SDS011;7846;48.830;9.116;2023-01-24T02:08:06;18.37;;;14.70;;
15488;SDS011;7846;48.830;9.116;2023-01-24T02:10:36;17.50;;;13.70;;
15488;SDS011;7846;48.830;9.116;2023-01-24T02:13:20;17.77;;;14.27;;
15488;SDS011;7846;48.830;9.116;2023-01-24T02:15:46;14.17;;;11.50;;
15488;SDS011;7846;48.830;9.116;2023-01-24T02:18:32;17.97;;;14.23;;
15488;SDS011;7846;48.830;9.116;2023-01-24T02:21:01;18.63;;;14.73;;
15488;SDS011;7846;48.830;9.116;2023-01-24T02:26:21;18.07;;;14.30;;
15488;SDS011;7846;48.830;9.116;2023-01-24T02:28:56;18.80;;;14.03;;
15488;SDS011;7846;48.830;9.116;2023-01-24T02:31:23;18.17;;;14.13;;
15488;SDS011;7846;48.830;9.116;2023-01-24T02:33:49;17.30;;;14.17;;
15488;SDS011;7846;48.830;9.116;2023-01-24T02:36:21;17.90;;;13.53;;
15488;SDS011;7846;48.830;9.116;2023-01-24T02:39:18;16.87;;;12.57;;
15488;SDS011;7846;48.830;9.116;2023-01-24T02:42:08;15.60;;;12.70;;
15488;SDS011;7846;48.830;9.116;2023-01-24T02:44:39;17.87;;;14.17;;
15488;SDS011;7846;48.830;9.116;2023-01-24T02:47:13;18.23;;;14.13;;
15488;SDS011;7846;48.830;9.116;2023-01-24T02:49:39;18.73;;;13.70;;
15488;SDS011;7846;48.830;9.116;2023-01-24T02:52:07;17.73;;;13.80;;
15488;SDS011;7846;48.830;9.116;2023-01-24T02:54:51;17.17;;;14.10;;
15488;SDS011;7846;48.830;9.116;2023-01-24T02:57:16;17.50;;;13.67;;
15488;SDS011;7846;48.830;9.116;2023-01-24T03:00:02;16.13;;;12.97;;
15488;SDS011;7846;48.830;9.116;2023-01-24T03:02:31;19.43;;;14.00;;
15488;SDS011;7846;48.830;9.116;2023-01-24T03:04:57;18.03;;;13.67;;
15488;SDS011;7846;48.830;9.116;2023-01-24T03:07:22;18.13;;;13.80;;
15488;SDS011;7846;48.830;9.116;2023-01-24T03:09:47;17.83;;;14.17;;
15488;SDS011;7846;48.830;9.116;2023-01-24T03:12:14;17.57;;;14.07;;
15488;SDS011;7846;48.830;9.116;2023-01-24T03:14:58;17.47;;;13.90;;
15488;SDS011;7846;48.830;9.116;2023-01-24T03:17:42;17.53;;;13.67;;
15488;SDS011;7846;48.830;9.116;2023-01-24T03:20:26;17.67;;;13.97;;
15488;SDS011;7846;48.830;9.116;2023-01-24T03:23:09;17.30;;;13.80;;
15488;SDS011;7846;48.830;9.116;2023-01-24T03:25:54;16.83;;;13.37;;
15488;SDS011;7846;48.830;9.116;2023-01-24T03:28:39;17.40;;;13.90;;
15488;SDS011;7846;48.830;9.116;2023-01-24T03:31:23;16.87;;;13.37;;
15488;SDS011;7846;48.830;9.116;2023-01-24T03:34:08;16.20;;;12.63;;
15488;SDS011;7846;48.830;9.116;2023-01-24T03:36:52;17.73;;;13.93;;
15488;SDS011;7846;48.830;9.116;2023-01-24T03:39:17;16.63;;;13.37;;
15488;SDS011;7846;48.830;9.116;2023-01-24T03:42:01;17.17;;;13.77;;
15488;SDS011;7846;48.830;9.116;2023-01-24T03:44:28;18.47;;;14.23;;
15488;SDS011;7846;48.830;9.116;2023-01-24T03:46:53;19.53;;;14.70;;
15488;SDS011;7846;48.830;9.116;2023-01-24T03:49:19;18.07;;;13.67;;
15488;SDS011;7846;48.830;9.116;2023-01-24T03:51:45;18.77;;;13.47;;
15488;SDS011;7846;48.830;9.116;2023-01-24T03:54:29;17.60;;;14.00;;
15488;SDS011;7846;48.830;9.116;2023-01-24T03:56:54;17.90;;;13.97;;
15488;SDS011;7846;48.830;9.116;2023-01-24T03:59:21;18.23;;;13.57;;
15488;SDS011;7846;48.830;9.116;2023-01-24T04:01:46;19.50;;;14.53;;
15488;SDS011;7846;48.830;9.116;2023-01-24T04:04:12;16.83;;;13.30;;
15488;SDS011;7846;48.830;9.116;2023-01-24T04:06:39;18.93;;;14.00;;
15488;SDS011;7846;48.830;9.116;2023-01-24T04:09:05;17.93;;;14.20;;
15488;SDS011;7846;48.830;9.116;2023-01-24T04:11:31;17.07;;;12.90;;
15488;SDS011;7846;48.830;9.116;2023-01-24T04:13:58;17.57;;;13.73;;
15488;SDS011;7846;48.830;9.116;2023-01-24T04:16:23;19.43;;;13.60;;
15488;SDS011;7846;48.830;9.116;2023-01-24T04:18:49;16.73;;;12.97;;
15488;SDS011;7846;48.830;9.116;2023-01-24T04:21:14;17.17;;;13.20;;
15488;SDS011;7846;48.830;9.116;2023-01-24T04:23:39;18.90;;;14.07;;
15488;SDS011;7846;48.830;9.116;2023-01-24T04:26:05;18.80;;;14.77;;
15488;SDS011;7846;48.830;9.116;2023-01-24T04:28:30;17.40;;;13.43;;
15488;SDS011;7846;48.830;9.116;2023-01-24T04:30:56;16.93;;;13.30;;
15488;SDS011;7846;48.830;9.116;2023-01-24T04:33:26;18.67;;;14.53;;
15488;SDS011;7846;48.830;9.116;2023-01-24T04:35:55;19.03;;;14.67;;
15488;SDS011;7846;48.830;9.116;2023-01-24T04:38:21;18.47;;;14.17;;
15488;SDS011;7846;48.830;9.116;2023-01-24T04:40:55;18.97;;;14.63;;
15488;SDS011;7846;48.830;9.116;2023-01-24T04:43:21;17.97;;;14.03;;
15488;SDS011;7846;48.830;9.116;2023-01-24T04:45:47;19.33;;;14.20;;
15488;SDS011;7846;48.830;9.116;2023-01-24T04:48:13;19.13;;;14.13;;
15488;SDS011;7846;48.830;9.116;2023-01-24T04:50:38;17.93;;;13.97;;
15488;SDS011;7846;48.830;9.116;2023-01-24T04:53:05;18.43;;;13.87;;
15488;SDS011;7846;48.830;9.116;2023-01-24T04:55:30;19.20;;;14.37;;
15488;SDS011;7846;48.830;9.116;2023-01-24T04:57:55;19.63;;;14.80;;
15488;SDS011;7846;48.830;9.116;2023-01-24T05:00:22;19.70;;;14.27;;
15488;SDS011;7846;48.830;9.116;2023-01-24T05:02:49;17.87;;;13.97;;
15488;SDS011;7846;48.830;9.116;2023-01-24T05:05:15;21.07;;;14.67;;
15488;SDS011;7846;48.830;9.116;2023-01-24T05:07:42;18.57;;;13.83;;
15488;SDS011;7846;48.830;9.116;2023-01-24T05:10:08;19.27;;;14.63;;
15488;SDS011;7846;48.830;9.116;2023-01-24T05:12:34;22.23;;;15.40;;
15488;SDS011;7846;48.830;9.116;2023-01-24T05:14:59;21.03;;;15.40;;
15488;SDS011;7846;48.830;9.116;2023-01-24T05:17:25;19.67;;;14.63;;
15488;SDS011;7846;48.830;9.116;2023-01-24T05:19:50;17.20;;;12.80;;
15488;SDS011;7846;48.830;9.116;2023-01-24T05:22:15;19.33;;;14.30;;
15488;SDS011;7846;48.830;9.116;2023-01-24T05:24:41;20.43;;;15.07;;
15488;SDS011;7846;48.830;9.116;2023-01-24T05:27:06;19.87;;;15.33;;
15488;SDS011;7846;48.830;9.116;2023-01-24T05:29:31;19.90;;;14.90;;
15488;SDS011;7846;48.830;9.116;2023-01-24T05:31:58;20.47;;;14.63;;
15488;SDS011;7846;48.830;9.116;2023-01-24T05:34:24;20.63;;;15.63;;
15488;SDS011;7846;48.830;9.116;2023-01-24T05:36:50;19.87;;;15.40;;
15488;SDS011;7846;48.830;9.116;2023-01-24T05:39:16;20.27;;;15.03;;
15488;SDS011;7846;48.830;9.116;2023-01-24T05:41:42;20.70;;;14.47;;
15488;SDS011;7846;48.830;9.116;2023-01-24T05:44:07;19.37;;;14.73;;
15488;SDS011;7846;48.830;9.116;2023-01-24T05:46:32;19.63;;;14.70;;
15488;SDS011;7846;48.830;9.116;2023-01-24T05:48:58;18.77;;;14.97;;
15488;SDS011;7846;48.830;9.116;2023-01-24T05:51:24;19.80;;;14.83;;
15488;SDS011;7846;48.830;9.116;2023-01-24T05:53:52;20.93;;;14.83;;
15488;SDS011;7846;48.830;9.116;2023-01-24T05:56:18;19.53;;;14.37;;
15488;SDS011;7846;48.830;9.116;2023-01-24T05:58:45;20.50;;;15.33;;
15488;SDS011;7846;48.830;9.116;2023-01-24T06:01:19;19.23;;;14.43;;
15488;SDS011;7846;48.830;9.116;2023-01-24T06:03:48;21.27;;;15.40;;
15488;SDS011;7846;48.830;9.116;2023-01-24T06:06:16;20.53;;;15.40;;
15488;SDS011;7846;48.830;9.116;2023-01-24T06:08:44;22.00;;;15.50;;
15488;SDS011;7846;48.830;9.116;2023-01-24T06:11:11;21.03;;;15.00;;
15488;SDS011;7846;48.830;9.116;2023-01-24T06:13:38;20.67;;;15.00;;
15488;SDS011;7846;48.830;9.116;2023-01-24T06:16:05;21.10;;;15.70;;
15488;SDS011;7846;48.830;9.116;2023-01-24T06:18:32;18.90;;;15.17;;
15488;SDS011;7846;48.830;9.116;2023-01-24T06:21:03;21.93;;;14.97;;
15488;SDS011;7846;48.830;9.116;2023-01-24T06:23:30;21.33;;;15.30;;
15488;SDS011;7846;48.830;9.116;2023-01-24T06:25:57;20.80;;;14.93;;
15488;SDS011;7846;48.830;9.116;2023-01-24T06:28:22;21.10;;;14.93;;
15488;SDS011;7846;48.830;9.116;2023-01-24T06:30:56;20.87;;;15.50;;
15488;SDS011;7846;48.830;9.116;2023-01-24T06:33:36;22.93;;;15.43;;
15488;SDS011;7846;48.830;9.116;2023-01-24T06:36:12;21.33;;;14.80;;
15488;SDS011;7846;48.830;9.116;2023-01-24T06:38:46;20.40;;;14.70;;
15488;SDS011;7846;48.830;9.116;2023-01-24T06:41:16;21.20;;;15.37;;
15488;SDS011;7846;48.830;9.116;2023-01-24T06:43:43;21.40;;;15.80;;
15488;SDS011;7846;48.830;9.116;2023-01-24T06:46:09;21.07;;;14.40;;
15488;SDS011;7846;48.830;9.116;2023-01-24T06:48:36;21.27;;;15.33;;
15488;SDS011;7846;48.830;9.116;2023-01-24T06:51:01;20.67;;;15.40;;
15488;SDS011;7846;48.830;9.116;2023-01-24T06:53:26;20.77;;;15.67;;
15488;SDS011;7846;48.830;9.116;2023-01-24T06:55:53;19.03;;;14.70;;
15488;SDS011;7846;48.830;9.116;2023-01-24T06:58:18;21.37;;;15.03;;
15488;SDS011;7846;48.830;9.116;2023-01-24T07:00:45;22.60;;;15.73;;
15488;SDS011;7846;48.830;9.116;2023-01-24T07:03:10;20.63;;;15.77;;
15488;SDS011;7846;48.830;9.116;2023-01-24T07:05:36;22.30;;;19.15;;
15488;SDS011;7846;48.830;9.116;2023-01-24T07:08:04;21.23;;;16.80;;
15488;SDS011;7846;48.830;9.116;2023-01-24T07:10:31;19.80;;;15.13;;
15488;SDS011;7846;48.830;9.116;2023-01-24T07:12:57;18.37;;;13.27;;
15488;SDS011;7846;48.830;9.116;2023-01-24T07:15:23;22.63;;;15.57;;
15488;SDS011;7846;48.830;9.116;2023-01-24T07:17:50;20.67;;;14.67;;
15488;SDS011;7846;48.830;9.116;2023-01-24T07:20:16;20.73;;;15.07;;
15488;SDS011;7846;48.830;9.116;2023-01-24T07:22:42;17.07;;;12.63;;
15488;SDS011;7846;48.830;9.116;2023-01-24T07:25:14;21.63;;;15.83;;
15488;SDS011;7846;48.830;9.116;2023-01-24T07:27:42;22.40;;;16.10;;
15488;SDS011;7846;48.830;9.116;2023-01-24T07:30:09;19.47;;;14.77;;
15488;SDS011;7846;48.830;9.116;2023-01-24T07:32:36;21.90;;;15.63;;
15488;SDS011;7846;48.830;9.116;2023-01-24T07:35:01;20.57;;;14.83;;
15488;SDS011;7846;48.830;9.116;2023-01-24T07:37:27;21.97;;;15.57;;
15488;SDS011;7846;48.830;9.116;2023-01-24T07:39:52;23.03;;;16.00;;
15488;SDS011;7846;48.830;9.116;2023-01-24T07:42:19;19.17;;;14.03;;
15488;SDS011;7846;48.830;9.116;2023-01-24T07:44:45;21.20;;;15.13;;
15488;SDS011;7846;48.830;9.116;2023-01-24T07:47:11;20.97;;;14.87;;
15488;SDS011;7846;48.830;9.116;2023-01-24T07:49:37;19.80;;;13.07;;
15488;SDS011;7846;48.830;9.116;2023-01-24T07:52:04;20.37;;;14.60;;
15488;SDS011;7846;48.830;9.116;2023-01-24T07:54:30;20.53;;;15.50;;
15488;SDS011;7846;48.830;9.116;2023-01-24T07:56:56;19.20;;;14.43;;
15488;SDS011;7846;48.830;9.116;2023-01-24T07:59:24;20.40;;;14.73;;
15488;SDS011;7846;48.830;9.116;2023-01-24T08:01:50;17.23;;;14.07;;
15488;SDS011;7846;48.830;9.116;2023-01-24T08:04:16;20.70;;;14.40;;
15488;SDS011;7846;48.830;9.116;2023-01-24T08:06:41;19.33;;;14.70;;
15488;SDS011;7846;48.830;9.116;2023-01-24T08:09:26;20.80;;;14.77;;
15488;SDS011;7846;48.830;9.116;2023-01-24T08:11:52;19.37;;;14.63;;
15488;SDS011;7846;48.830;9.116;2023-01-24T08:14:19;21.37;;;14.30;;
15488;SDS011;7846;48.830;9.116;2023-01-24T08:16:46;19.77;;;14.73;;
15488;SDS011;7846;48.830;9.116;2023-01-24T08:19:12;18.97;;;13.37;;
15488;SDS011;7846;48.830;9.116;2023-01-24T08:21:38;17.60;;;14.10;;
15488;SDS011;7846;48.830;9.116;2023-01-24T08:24:04;21.97;;;14.33;;
15488;SDS011;7846;48.830;9.116;2023-01-24T08:26:29;21.40;;;15.43;;
15488;SDS011;7846;48.830;9.116;2023-01-24T08:28:55;23.33;;;15.10;;
15488;SDS011;7846;48.830;9.116;2023-01-24T08:31:22;20.63;;;14.40;;
15488;SDS011;7846;48.830;9.116;2023-01-24T08:33:47;19.30;;;14.60;;
15488;SDS011;7846;48.830;9.116;2023-01-24T08:36:13;23.77;;;12.13;;
15488;SDS011;7846;48.830;9.116;2023-01-24T08:38:39;19.87;;;14.67;;
15488;SDS011;7846;48.830;9.116;2023-01-24T08:41:05;18.63;;;14.03;;
15488;SDS011;7846;48.830;9.116;2023-01-24T08:43:33;19.10;;;14.13;;
15488;SDS011;7846;48.830;9.116;2023-01-24T08:45:59;20.13;;;13.77;;
15488;SDS011;7846;48.830;9.116;2023-01-24T08:48:27;19.13;;;14.53;;
15488;SDS011;7846;48.830;9.116;2023-01-24T08:50:53;16.70;;;12.53;;
15488;SDS011;7846;48.830;9.116;2023-01-24T08:53:19;18.87;;;14.13;;
15488;SDS011;7846;48.830;9.116;2023-01-24T08:55:49;21.07;;;15.20;;
15488;SDS011;7846;48.830;9.116;2023-01-24T08:58:15;21.17;;;14.43;;
15488;SDS011;7846;48.830;9.116;2023-01-24T09:00:40;20.20;;;13.60;;
15488;SDS011;7846;48.830;9.116;2023-01-24T09:03:06;17.87;;;13.57;;
15488;SDS011;7846;48.830;9.116;2023-01-24T09:05:33;17.57;;;13.20;;
15488;SDS011;7846;48.830;9.116;2023-01-24T09:07:59;17.20;;;13.60;;
15488;SDS011;7846;48.830;9.116;2023-01-24T09:10:25;17.97;;;12.97;;
15488;SDS011;7846;48.830;9.116;2023-01-24T09:12:51;14.97;;;11.90;;
15488;SDS011;7846;48.830;9.116;2023-01-24T09:15:17;18.80;;;12.53;;
15488;SDS011;7846;48.830;9.116;2023-01-24T09:17:42;17.87;;;12.30;;
15488;SDS011;7846;48.830;9.116;2023-01-24T09:20:09;16.43;;;12.77;;
15488;SDS011;7846;48.830;9.116;2023-01-24T09:22:35;16.20;;;12.67;;
15488;SDS011;7846;48.830;9.116;2023-01-24T09:25:02;18.97;;;13.47;;
15488;SDS011;7846;48.830;9.116;2023-01-24T09:27:28;18.00;;;12.40;;
15488;SDS011;7846;48.830;9.116;2023-01-24T09:29:55;16.63;;;13.10;;
15488;SDS011;7846;48.830;9.116;2023-01-24T09:32:20;16.97;;;12.53;;
15488;SDS011;7846;48.830;9.116;2023-01-24T09:34:46;15.40;;;11.37;;
15488;SDS011;7846;48.830;9.116;2023-01-24T09:37:19;15.17;;;11.90;;
15488;SDS011;7846;48.830;9.116;2023-01-24T09:39:45;14.67;;;11.83;;
15488;SDS011;7846;48.830;9.116;2023-01-24T09:47:46;15.57;;;11.57;;
15488;SDS011;7846;48.830;9.116;2023-01-24T09:50:19;14.27;;;11.20;;
15488;SDS011;7846;48.830;9.116;2023-01-24T09:52:51;15.97;;;12.10;;
15488;SDS011;7846;48.830;9.116;2023-01-24T10:00:30;13.27;;;10.40;;
15488;SDS011;7846;48.830;9.116;2023-01-24T10:02:59;13.43;;;10.50;;
15488;SDS011;7846;48.830;9.116;2023-01-24T10:05:28;14.67;;;10.30;;
15488;SDS011;7846;48.830;9.116;2023-01-24T10:08:45;13.10;;;10.17;;
15488;SDS011;7846;48.830;9.116;2023-01-24T10:10:57;12.50;;;9.43;;
15488;SDS011;7846;48.830;9.116;2023-01-24T10:16:21;12.87;;;9.90;;
15488;SDS011;7846;48.830;9.116;2023-01-24T10:24:35;11.17;;;9.67;;
15488;SDS011;7846;48.830;9.116;2023-01-24T10:27:11;12.50;;;9.13;;
15488;SDS011;7846;48.830;9.116;2023-01-24T10:29:52;12.90;;;9.57;;
15488;SDS011;7846;48.830;9.116;2023-01-24T10:32:26;12.07;;;9.17;;
15488;SDS011;7846;48.830;9.116;2023-01-24T10:35:11;11.93;;;9.30;;
15488;SDS011;7846;48.830;9.116;2023-01-24T10:37:41;12.53;;;9.90;;
15488;SDS011;7846;48.830;9.116;2023-01-24T10:40:15;11.60;;;9.13;;
15488;SDS011;7846;48.830;9.116;2023-01-24T10:42:41;11.33;;;9.63;;
15488;SDS011;7846;48.830;9.116;2023-01-24T10:48:22;12.67;;;9.57;;
15488;SDS011;7846;48.830;9.116;2023-01-24T10:50:53;12.50;;;9.80;;
15488;SDS011;7846;48.830;9.116;2023-01-24T10:53:26;11.30;;;9.27;;
15488;SDS011;7846;48.830;9.116;2023-01-24T10:55:59;11.37;;;9.23;;
15488;SDS011;7846;48.830;9.116;2023-01-24T10:58:39;12.93;;;10.00;;
15488;SDS011;7846;48.830;9.116;2023-01-24T11:01:15;11.53;;;9.47;;
15488;SDS011;7846;48.830;9.116;2023-01-24T11:03:44;11.30;;;9.80;;
15488;SDS011;7846;48.830;9.116;2023-01-24T11:08:52;12.03;;;10.00;;
15488;SDS011;7846;48.830;9.116;2023-01-24T11:11:23;12.07;;;9.10;;
15488;SDS011;7846;48.830;9.116;2023-01-24T11:13:54;14.97;;;9.43;;
15488;SDS011;7846;48.830;9.116;2023-01-24T11:16:21;11.27;;;9.73;;
15488;SDS011;7846;48.830;9.116;2023-01-24T11:18:55;13.13;;;9.53;;
15488;SDS011;7846;48.830;9.116;2023-01-24T11:21:28;13.03;;;9.17;;
15488;SDS011;7846;48.830;9.116;2023-01-24T11:23:59;12.70;;;9.30;;
15488;SDS011;7846;48.830;9.116;2023-01-24T11:26:31;12.33;;;9.60;;
15488;SDS011;7846;48.830;9.116;2023-01-24T11:29:03;11.70;;;9.00;;
15488;SDS011;7846;48.830;9.116;2023-01-24T11:31:44;11.93;;;9.40;;
15488;SDS011;7846;48.830;9.116;2023-01-24T11:40:00;11.13;;;8.77;;
15488;SDS011;7846;48.830;9.116;2023-01-24T11:48:08;12.57;;;8.80;;
15488;SDS011;7846;48.830;9.116;2023-01-24T11:56:53;10.43;;;8.70;;
15488;SDS011;7846;48.830;9.116;2023-01-24T12:11:12;10.83;;;8.17;;
15488;SDS011;7846;48.830;9.116;2023-01-24T12:13:48;11.13;;;8.00;;
15488;SDS011;7846;48.830;9.116;2023-01-24T12:16:47;13.20;;;8.17;;
15488;SDS011;7846;48.830;9.116;2023-01-24T12:19:50;10.13;;;8.30;;
15488;SDS011;7846;48.830;9.116;2023-01-24T12:22:38;8.87;;;7.93;;
15488;SDS011;7846;48.830;9.116;2023-01-24T12:25:16;9.27;;;8.20;;
15488;SDS011;7846;48.830;9.116;2023-01-24T12:27:55;7.13;;;6.20;;
15488;SDS011;7846;48.830;9.116;2023-01-24T12:30:40;9.03;;;7.90;;
15488;SDS011;7846;48.830;9.116;2023-01-24T12:35:45;9.00;;;6.83;;
15488;SDS011;7846;48.830;9.116;2023-01-24T12:38:21;10.90;;;7.80;;
15488;SDS011;7846;48.830;9.116;2023-01-24T12:40:58;8.10;;;7.13;;
15488;SDS011;7846;48.830;9.116;2023-01-24T12:51:59;9.30;;;7.10;;
15488;SDS011;7846;48.830;9.116;2023-01-24T12:54:35;7.53;;;6.03;;
15488;SDS011;7846;48.830;9.116;2023-01-24T12:57:13;7.50;;;6.67;;
15488;SDS011;7846;48.830;9.116;2023-01-24T12:59:48;8.10;;;7.23;;
15488;SDS011;7846;48.830;9.116;2023-01-24T13:02:29;8.87;;;7.37;;
15488;SDS011;7846;48.830;9.116;2023-01-24T13:08:25;8.10;;;7.00;;
15488;SDS011;7846;48.830;9.116;2023-01-24T13:14:34;8.03;;;7.17;;
15488;SDS011;7846;48.830;9.116;2023-01-24T13:16:54;8.27;;;6.93;;
15488;SDS011;7846;48.830;9.116;2023-01-24T13:19:37;9.93;;;7.80;;
15488;SDS011;7846;48.830;9.116;2023-01-24T13:27:42;8.33;;;7.23;;
15488;SDS011;7846;48.830;9.116;2023-01-24T13:30:21;8.97;;;7.00;;
15488;SDS011;7846;48.830;9.116;2023-01-24T13:33:11;11.10;;;7.87;;
15488;SDS011;7846;48.830;9.116;2023-01-24T13:35:47;9.60;;;7.77;;
15488;SDS011;7846;48.830;9.116;2023-01-24T13:38:25;9.90;;;7.83;;
15488;SDS011;7846;48.830;9.116;2023-01-24T13:41:02;8.10;;;7.20;;
15488;SDS011;7846;48.830;9.116;2023-01-24T13:46:02;8.40;;;6.80;;
15488;SDS011;7846;48.830;9.116;2023-01-24T13:57:08;10.10;;;8.73;;
15488;SDS011;7846;48.830;9.116;2023-01-24T14:07:52;9.20;;;7.40;;
15488;SDS011;7846;48.830;9.116;2023-01-24T14:10:18;11.30;;;7.83;;
15488;SDS011;7846;48.830;9.116;2023-01-24T14:12:51;11.03;;;8.20;;
15488;SDS011;7846;48.830;9.116;2023-01-24T14:15:26;12.30;;;8.67;;
15488;SDS011;7846;48.830;9.116;2023-01-24T14:17:56;9.30;;;7.93;;
15488;SDS011;7846;48.830;9.116;2023-01-24T14:20:22;10.10;;;7.63;;
15488;SDS011;7846;48.830;9.116;2023-01-24T14:22:57;9.60;;;7.70;;
15488;SDS011;7846;48.830;9.116;2023-01-24T14:28:17;10.23;;;8.27;;
15488;SDS011;7846;48.830;9.116;2023-01-24T14:30:49;8.90;;;7.23;;
15488;SDS011;7846;48.830;9.116;2023-01-24T14:33:22;10.67;;;7.67;;
15488;SDS011;7846;48.830;9.116;2023-01-24T14:35:58;10.23;;;7.50;;
15488;SDS011;7846;48.830;9.116;2023-01-24T14:38:31;8.67;;;7.57;;
15488;SDS011;7846;48.830;9.116;2023-01-24T14:40:58;11.07;;;7.27;;
15488;SDS011;7846;48.830;9.116;2023-01-24T14:43:37;8.60;;;7.67;;
15488;SDS011;7846;48.830;9.116;2023-01-24T14:46:16;8.87;;;7.93;;
15488;SDS011;7846;48.830;9.116;2023-01-24T14:48:48;9.97;;;7.60;;
15488;SDS011;7846;48.830;9.116;2023-01-24T14:51:15;9.77;;;7.83;;
15488;SDS011;7846;48.830;9.116;2023-01-24T14:53:47;10.53;;;7.90;;
15488;SDS011;7846;48.830;9.116;2023-01-24T14:56:14;10.03;;;8.40;;
15488;SDS011;7846;48.830;9.116;2023-01-24T14:58:40;9.63;;;8.30;;
15488;SDS011;7846;48.830;9.116;2023-01-24T15:01:23;10.33;;;8.33;;
15488;SDS011;7846;48.830;9.116;2023-01-24T15:03:48;10.87;;;8.67;;
15488;SDS011;7846;48.830;9.116;2023-01-24T15:06:16;11.97;;;8.57;;
15488;SDS011;7846;48.830;9.116;2023-01-24T15:08:43;12.20;;;9.60;;
15488;SDS011;7846;48.830;9.116;2023-01-24T15:11:19;11.90;;;9.40;;
15488;SDS011;7846;48.830;9.116;2023-01-24T15:14:06;11.07;;;8.80;;
15488;SDS011;7846;48.830;9.116;2023-01-24T15:16:46;10.53;;;8.33;;
15488;SDS011;7846;48.830;9.116;2023-01-24T15:19:21;11.30;;;9.53;;
15488;SDS011;7846;48.830;9.116;2023-01-24T15:21:52;15.87;;;11.67;;
15488;SDS011;7846;48.830;9.116;2023-01-24T15:24:23;17.60;;;13.43;;
15488;SDS011;7846;48.830;9.116;2023-01-24T15:26:50;17.23;;;13.43;;
15488;SDS011;7846;48.830;9.116;2023-01-24T15:34:48;12.17;;;9.60;;
15488;SDS011;7846;48.830;9.116;2023-01-24T15:37:15;13.20;;;10.10;;
15488;SDS011;7846;48.830;9.116;2023-01-24T15:39:40;11.40;;;9.00;;
15488;SDS011;7846;48.830;9.116;2023-01-24T15:42:13;16.20;;;10.70;;
15488;SDS011;7846;48.830;9.116;2023-01-24T15:44:58;13.63;;;9.73;;
15488;SDS011;7846;48.830;9.116;2023-01-24T15:47:24;12.30;;;9.90;;
15488;SDS011;7846;48.830;9.116;2023-01-24T15:50:18;11.90;;;9.73;;
15488;SDS011;7846;48.830;9.116;2023-01-24T15:53:10;14.90;;;10.10;;
15488;SDS011;7846;48.830;9.116;2023-01-24T15:55:51;15.83;;;10.50;;
15488;SDS011;7846;48.830;9.116;2023-01-24T15:58:17;14.37;;;10.67;;
15488;SDS011;7846;48.830;9.116;2023-01-24T16:00:49;11.90;;;9.97;;
15488;SDS011;7846;48.830;9.116;2023-01-24T16:03:18;15.17;;;10.57;;
15488;SDS011;7846;48.830;9.116;2023-01-24T16:05:44;13.73;;;10.83;;
15488;SDS011;7846;48.830;9.116;2023-01-24T16:08:10;13.07;;;10.03;;
15488;SDS011;7846;48.830;9.116;2023-01-24T16:10:35;13.70;;;10.33;;
15488;SDS011;7846;48.830;9.116;2023-01-24T16:13:01;14.20;;;9.93;;
15488;SDS011;7846;48.830;9.116;2023-01-24T16:15:27;13.10;;;9.03;;
15488;SDS011;7846;48.830;9.116;2023-01-24T16:17:53;14.00;;;11.17;;
15488;SDS011;7846;48.830;9.116;2023-01-24T16:20:21;14.30;;;10.63;;
15488;SDS011;7846;48.830;9.116;2023-01-24T16:22:53;15.23;;;11.13;;
15488;SDS011;7846;48.830;9.116;2023-01-24T16:25:20;17.23;;;11.27;;
15488;SDS011;7846;48.830;9.116;2023-01-24T16:27:47;15.20;;;11.13;;
15488;SDS011;7846;48.830;9.116;2023-01-24T16:30:15;16.13;;;11.63;;
15488;SDS011;7846;48.830;9.116;2023-01-24T16:32:42;17.67;;;11.83;;
15488;SDS011;7846;48.830;9.116;2023-01-24T16:35:08;15.23;;;11.37;;
15488;SDS011;7846;48.830;9.116;2023-01-24T16:37:37;14.73;;;10.77;;
15488;SDS011;7846;48.830;9.116;2023-01-24T16:40:02;16.40;;;11.33;;
15488;SDS011;7846;48.830;9.116;2023-01-24T16:42:28;14.27;;;11.20;;
15488;SDS011;7846;48.830;9.116;2023-01-24T16:44:55;14.70;;;10.87;;